Time;durP1;ratioP1;P1;durP2;ratioP2;P2;SDS_P1;SDS_P2;PMS_P1;PMS_P2;Temp;Humidity;BMP_temperature;BMP_pressure;BME280_temperature;BME280_humidity;BME280_pressure;Samples;Min_cycle;Max_cycle;Signal;HPM_P1;HPM_P2
2023/01/06 00:01:36;;;;;;;3.20;1.90;;;;;;;3.52;85.42;96798.61;105593;1288;24477;-82
2023/01/06 00:04:08;;;;;;;3.90;1.40;;;;;;;3.52;85.48;96799.49;105614;1296;22451;-82
2023/01/06 00:06:39;;;;;;;2.30;1.40;;;;;;;3.50;85.20;96809.59;105601;1293;22646;-82
2023/01/06 00:09:13;;;;;;;5.20;1.80;;;;;;;3.49;85.21;96816.06;105566;1302;34879;-82
2023/01/06 00:11:44;;;;;;;4.50;1.40;;;;;;;3.48;85.25;96823.95;105612;1302;22490;-82
2023/01/06 00:14:16;;;;;;;2.40;1.50;;;;;;;3.47;85.15;96822.67;105552;1296;25374;-82
2023/01/06 00:16:47;;;;;;;3.50;1.50;;;;;;;3.46;85.07;96815.32;105634;1301;25378;-83
2023/01/06 00:19:19;;;;;;;2.90;1.80;;;;;;;3.45;84.95;96815.25;105544;1286;23865;-82
2023/01/06 00:21:52;;;;;;;2.10;1.10;;;;;;;3.45;84.91;96834.29;105565;1303;22700;-82
2023/01/06 00:24:25;;;;;;;5.00;1.80;;;;;;;3.45;84.95;96834.33;105584;1287;22558;-82
2023/01/06 00:26:57;;;;;;;3.50;1.30;;;;;;;3.44;84.69;96827.60;105581;1291;25852;-82
2023/01/06 00:29:28;;;;;;;3.00;1.30;;;;;;;3.44;84.61;96830.91;105538;1296;47142;-82
2023/01/06 00:32:01;;;;;;;4.10;1.90;;;;;;;3.43;84.61;96824.68;105589;1294;22775;-81
2023/01/06 00:34:34;;;;;;;2.00;1.40;;;;;;;3.42;84.54;96823.98;105596;1294;22472;-82
2023/01/06 00:37:06;;;;;;;2.40;1.00;;;;;;;3.41;84.72;96828.27;105579;1299;22480;-82
2023/01/06 00:39:38;;;;;;;5.00;1.80;;;;;;;3.42;84.70;96837.25;105507;1303;80522;-82
2023/01/06 00:42:10;;;;;;;1.90;1.20;;;;;;;3.41;84.85;96837.66;105594;1298;22465;-82
2023/01/06 00:44:43;;;;;;;3.70;1.60;;;;;;;3.41;84.94;96845.09;105511;1302;22480;-82
2023/01/06 00:47:15;;;;;;;2.60;1.60;;;;;;;3.40;84.89;96846.55;105546;1303;22536;-82
2023/01/06 00:49:46;;;;;;;2.80;1.80;;;;;;;3.41;84.48;96848.34;105562;1301;38134;-82
2023/01/06 00:52:18;;;;;;;2.90;1.40;;;;;;;3.42;84.29;96851.30;105580;1302;22537;-83
2023/01/06 00:54:50;;;;;;;2.80;1.50;;;;;;;3.41;84.35;96850.44;105618;1299;25286;-82
2023/01/06 00:57:22;;;;;;;2.80;2.00;;;;;;;3.40;84.42;96853.66;105597;1303;25013;-82
2023/01/06 00:59:54;;;;;;;6.40;1.60;;;;;;;3.38;84.33;96859.92;105565;1287;22545;-83
2023/01/06 01:02:26;;;;;;;2.70;1.50;;;;;;;3.38;84.58;96858.27;105593;1290;22454;-82
2023/01/06 01:04:59;;;;;;;3.30;1.90;;;;;;;3.37;84.71;96863.88;105761;1299;22599;-82
2023/01/06 01:07:31;;;;;;;2.40;1.40;;;;;;;3.36;84.43;96869.63;105633;1284;22476;-82
2023/01/06 01:10:02;;;;;;;2.50;1.60;;;;;;;3.36;84.38;96874.61;105560;1303;22697;-83
2023/01/06 01:12:33;;;;;;;3.20;1.40;;;;;;;3.34;84.47;96876.62;105582;1292;22473;-83
2023/01/06 01:15:08;;;;;;;6.70;1.90;;;;;;;3.33;84.80;96881.73;105560;1293;22695;-82
2023/01/06 01:17:39;;;;;;;3.60;1.20;;;;;;;3.30;84.93;96890.77;105564;1285;24250;-82
2023/01/06 01:20:13;;;;;;;2.10;1.40;;;;;;;3.28;85.13;96896.04;105521;1303;22454;-83
2023/01/06 01:22:45;;;;;;;3.00;1.70;;;;;;;3.27;85.29;96898.95;105563;1301;22512;-82
2023/01/06 01:25:17;;;;;;;5.30;1.90;;;;;;;3.26;85.29;96915.27;105581;1295;25361;-82
2023/01/06 01:27:48;;;;;;;3.70;1.90;;;;;;;3.24;85.52;96911.98;105567;1296;22650;-83
2023/01/06 01:30:20;;;;;;;5.20;2.20;;;;;;;3.23;85.52;96907.77;105595;1300;42504;-83
2023/01/06 01:32:52;;;;;;;3.30;1.80;;;;;;;3.21;85.62;96910.31;105744;1286;22521;-83
2023/01/06 01:35:26;;;;;;;2.40;1.40;;;;;;;3.20;85.58;96920.25;105641;1300;22996;-83
2023/01/06 01:38:00;;;;;;;3.30;1.60;;;;;;;3.18;85.76;96925.27;105566;1293;22522;-83
2023/01/06 01:40:34;;;;;;;4.10;2.00;;;;;;;3.16;85.92;96929.30;105521;1287;24240;-82
2023/01/06 01:43:06;;;;;;;3.50;1.80;;;;;;;3.15;85.95;96933.42;105593;1302;22470;-82
2023/01/06 01:45:40;;;;;;;4.50;2.00;;;;;;;3.13;85.92;96937.58;105535;1300;22454;-83
2023/01/06 01:48:19;;;;;;;6.40;1.40;;;;;;;3.12;85.71;96941.17;105556;1287;22479;-82
2023/01/06 01:50:54;;;;;;;3.00;1.60;;;;;;;3.11;85.66;96946.05;105589;1295;22485;-82
2023/01/06 01:53:31;;;;;;;3.00;1.40;;;;;;;3.09;85.38;96944.09;105632;1278;22688;-82
2023/01/06 01:56:07;;;;;;;1.70;0.90;;;;;;;3.07;85.04;96940.33;105620;1289;22474;-82
2023/01/06 01:58:42;;;;;;;3.70;1.20;;;;;;;3.06;84.31;96941.77;105574;1303;25628;-82
2023/01/06 02:01:14;;;;;;;3.00;1.40;;;;;;;3.04;84.17;96948.38;105597;1302;22484;-82
2023/01/06 02:03:48;;;;;;;1.80;1.10;;;;;;;3.03;84.37;96944.63;105546;1292;24256;-83
2023/01/06 02:06:22;;;;;;;1.60;1.00;;;;;;;3.01;84.43;96944.02;105561;1283;22476;-82
2023/01/06 02:08:59;;;;;;;3.10;1.70;;;;;;;2.99;84.66;96950.05;105578;1287;24973;-82
2023/01/06 02:11:34;;;;;;;3.10;1.40;;;;;;;2.97;84.84;96947.33;105584;1275;22463;-83
2023/01/06 02:14:14;;;;;;;4.70;1.50;;;;;;;2.97;84.96;96953.70;105613;1297;22548;-82
2023/01/06 02:17:03;;;;;;;2.30;1.70;;;;;;;2.96;85.08;96943.88;105577;1294;22476;-83
2023/01/06 02:20:09;;;;;;;2.40;1.00;;;;;;;2.93;84.96;96954.09;105530;1300;44690;-82
2023/01/06 02:23:07;;;;;;;5.40;1.90;;;;;;;2.90;84.93;96950.95;105556;1303;24256;-83
2023/01/06 02:25:57;;;;;;;2.10;1.00;;;;;;;2.88;84.94;96955.70;105603;1286;22668;-83
2023/01/06 02:28:42;;;;;;;;;;;;;;;2.85;85.09;96958.84;105766;1296;40895;-83
2023/01/06 02:31:49;;;;;;;4.20;1.60;;;;;;;2.84;84.91;96947.02;105553;1294;22510;-82
2023/01/06 02:34:30;;;;;;;2.30;1.40;;;;;;;2.81;84.62;96951.74;105592;1294;24255;-82
2023/01/06 02:37:11;;;;;;;2.10;1.10;;;;;;;2.79;84.70;96949.68;105541;1277;22467;-83
2023/01/06 02:39:43;;;;;;;;;;;;;;;2.76;84.40;96946.05;105579;1300;35705;-82
2023/01/06 02:42:24;;;;;;;3.60;1.50;;;;;;;2.74;84.42;96958.81;105592;1302;22453;-83
2023/01/06 02:45:08;;;;;;;1.90;0.90;;;;;;;2.72;84.56;96957.35;105545;1302;24364;-83
2023/01/06 02:47:49;;;;;;;2.50;1.20;;;;;;;2.71;84.67;96965.02;105540;1303;25985;-84
2023/01/06 02:50:22;;;;;;;;;;;;;;;2.69;84.69;96970.64;105528;1302;53377;-83
2023/01/06 02:53:03;;;;;;;3.60;1.40;;;;;;;2.68;84.71;96975.27;105580;1288;23297;-83
2023/01/06 02:55:38;;;;;;;4.50;2.20;;;;;;;2.67;84.69;96974.06;105588;1289;22587;-82
2023/01/06 02:58:17;;;;;;;3.40;1.40;;;;;;;2.65;84.83;96977.77;105572;1295;22589;-82
2023/01/06 03:00:56;;;;;;;3.70;2.20;;;;;;;2.64;85.00;96980.58;105584;1303;22591;-83
2023/01/06 03:03:30;;;;;;;1.40;0.90;;;;;;;2.62;85.06;96984.51;105561;1302;23136;-82
2023/01/06 03:06:10;;;;;;;2.90;1.70;;;;;;;2.60;84.91;96985.45;105560;1293;22565;-83
2023/01/06 03:08:44;;;;;;;3.00;1.30;;;;;;;2.59;85.04;96992.59;105531;1294;31375;-83
2023/01/06 03:11:17;;;;;;;3.30;1.50;;;;;;;2.57;85.11;96991.17;105594;1302;22466;-83
2023/01/06 03:13:53;;;;;;;2.60;1.40;;;;;;;2.55;85.02;96987.77;105571;1280;22451;-83
2023/01/06 03:16:25;;;;;;;2.80;1.70;;;;;;;2.54;85.15;96991.89;105593;1294;22453;-82
2023/01/06 03:18:57;;;;;;;2.30;1.20;;;;;;;2.54;85.15;96994.08;105538;1294;29440;-82
2023/01/06 03:21:38;;;;;;;2.60;1.80;;;;;;;2.53;85.27;96999.62;105569;1302;22667;-83
2023/01/06 03:24:11;;;;;;;2.70;1.50;;;;;;;2.53;85.21;96998.38;105644;1295;24957;-83
2023/01/06 03:26:44;;;;;;;3.80;1.70;;;;;;;2.50;85.30;96998.91;105598;1296;22471;-82
2023/01/06 03:29:18;;;;;;;3.90;1.80;;;;;;;2.47;85.24;96999.92;105687;1293;67897;-82
2023/01/06 03:31:58;;;;;;;3.30;1.80;;;;;;;2.43;85.26;96998.40;105551;1294;22495;-83
2023/01/06 03:34:43;;;;;;;3.70;1.30;;;;;;;2.40;85.43;97001.09;105565;1302;22522;-82
2023/01/06 03:37:25;;;;;;;4.00;1.90;;;;;;;2.37;85.39;97005.77;105587;1302;22482;-83
2023/01/06 03:40:06;;;;;;;4.10;1.60;;;;;;;2.37;85.26;97013.09;105564;1288;51312;-83
2023/01/06 03:45:51;;;;;;;4.00;1.60;;;;;;;2.36;85.25;97008.27;105700;1291;22469;-83
2023/01/06 03:48:31;;;;;;;1.90;1.00;;;;;;;2.35;85.44;97008.41;105799;1285;60682;-82
2023/01/06 03:51:15;;;;;;;1.40;1.10;;;;;;;2.32;85.35;97014.41;105663;1295;22857;-83
2023/01/06 03:53:54;;;;;;;4.90;1.80;;;;;;;2.30;85.62;97021.55;105751;1300;22537;-83
2023/01/06 03:56:29;;;;;;;2.70;1.60;;;;;;;2.31;85.55;97019.17;105608;1294;22466;-83
2023/01/06 03:59:04;;;;;;;3.20;1.60;;;;;;;2.32;85.68;97018.84;105544;1302;37789;-83
2023/01/06 04:01:37;;;;;;;1.90;1.30;;;;;;;2.33;85.62;97017.81;105678;1300;22459;-83
2023/01/06 04:04:09;;;;;;;2.00;1.00;;;;;;;2.31;85.55;97014.53;105622;1286;25208;-83
2023/01/06 04:06:40;;;;;;;3.90;1.80;;;;;;;2.29;85.65;97018.02;105813;1300;22526;-83
2023/01/06 04:09:11;;;;;;;5.30;1.40;;;;;;;2.26;85.71;97021.15;105602;1283;43263;-83
2023/01/06 04:14:31;;;;;;;4.10;1.70;;;;;;;2.22;85.80;97016.58;105555;1280;22474;-83
2023/01/06 04:17:02;;;;;;;2.80;1.90;;;;;;;2.20;86.03;97021.98;105600;1294;22619;-83
2023/01/06 04:19:33;;;;;;;4.00;1.60;;;;;;;2.19;86.09;97023.16;105741;1288;36537;-83
2023/01/06 04:22:04;;;;;;;3.90;1.30;;;;;;;2.18;86.16;97031.02;105558;1282;24273;-83
2023/01/06 04:24:36;;;;;;;3.00;1.70;;;;;;;2.17;86.19;97026.81;105578;1294;23043;-82
2023/01/06 04:27:07;;;;;;;2.90;1.90;;;;;;;2.18;86.22;97031.34;105609;1300;24891;-82
2023/01/06 04:29:38;;;;;;;5.40;2.10;;;;;;;2.19;86.28;97032.15;105559;1302;35145;-83
2023/01/06 04:32:09;;;;;;;3.70;1.60;;;;;;;2.19;86.18;97043.86;105569;1287;22463;-82
2023/01/06 04:34:40;;;;;;;4.60;2.40;;;;;;;2.19;86.11;97048.16;105581;1294;23855;-82
2023/01/06 04:37:14;;;;;;;2.90;1.70;;;;;;;2.19;86.18;97047.15;105567;1303;22468;-82
2023/01/06 04:39:48;;;;;;;5.40;2.30;;;;;;;2.17;86.14;97051.23;105551;1302;37107;-82
2023/01/06 04:42:19;;;;;;;4.50;2.40;;;;;;;2.15;86.13;97052.74;105614;1295;23288;-82
2023/01/06 04:44:50;;;;;;;3.60;1.50;;;;;;;2.13;86.23;97058.27;105572;1302;22562;-82
2023/01/06 04:47:21;;;;;;;2.40;1.50;;;;;;;2.12;86.44;97058.11;105609;1294;22419;-82
2023/01/06 04:49:53;;;;;;;7.20;2.60;;;;;;;2.11;86.52;97060.09;105688;1300;25089;-82
2023/01/06 04:52:24;;;;;;;5.10;2.20;;;;;;;2.12;86.50;97060.39;105626;1281;23756;-82
2023/01/06 04:54:55;;;;;;;2.40;1.60;;;;;;;2.14;86.41;97058.20;105711;1300;22467;-83
2023/01/06 04:57:26;;;;;;;3.00;2.10;;;;;;;2.13;86.51;97059.73;105547;1302;25417;-83
2023/01/06 04:59:58;;;;;;;2.70;1.70;;;;;;;2.11;86.54;97067.61;105522;1302;40779;-83
2023/01/06 05:02:29;;;;;;;3.90;2.50;;;;;;;2.10;86.67;97072.40;105585;1302;23298;-83
2023/01/06 05:05:00;;;;;;;3.30;1.90;;;;;;;2.09;86.65;97068.11;105586;1294;22498;-83
2023/01/06 05:07:34;;;;;;;3.10;1.80;;;;;;;2.08;86.74;97075.20;105602;1301;23715;-83
2023/01/06 05:10:07;;;;;;;4.40;2.20;;;;;;;2.07;86.77;97068.17;105565;1295;36480;-82
2023/01/06 05:12:39;;;;;;;4.40;2.20;;;;;;;2.06;86.89;97071.11;105617;1281;22479;-83
2023/01/06 05:15:14;;;;;;;5.90;2.30;;;;;;;2.05;86.85;97070.27;105582;1296;22539;-83
2023/01/06 05:17:47;;;;;;;3.80;2.30;;;;;;;2.06;87.05;97074.25;105570;1302;23116;-83
2023/01/06 05:20:18;;;;;;;5.30;2.50;;;;;;;2.06;86.93;97078.23;105606;1287;22470;-83
2023/01/06 05:22:49;;;;;;;5.30;2.40;;;;;;;2.07;86.97;97075.01;105593;1284;25854;-83
2023/01/06 05:25:26;;;;;;;3.50;2.10;;;;;;;2.09;86.83;97079.21;105644;1300;22484;-82
2023/01/06 05:27:57;;;;;;;4.40;2.20;;;;;;;2.08;86.81;97084.94;105855;1300;22473;-83
2023/01/06 05:30:28;;;;;;;4.40;2.30;;;;;;;2.08;86.98;97087.19;105601;1278;24431;-83
2023/01/06 05:32:59;;;;;;;5.50;2.90;;;;;;;2.08;86.90;97085.98;105574;1302;22486;-82
2023/01/06 05:35:30;;;;;;;3.60;2.40;;;;;;;2.08;86.97;97085.36;105636;1295;22563;-83
2023/01/06 05:38:02;;;;;;;3.10;2.00;;;;;;;2.09;86.73;97088.91;105660;1300;22557;-83
2023/01/06 05:40:34;;;;;;;3.30;2.20;;;;;;;2.10;86.81;97088.98;105598;1271;22499;-83
2023/01/06 05:43:07;;;;;;;3.50;2.10;;;;;;;2.11;86.78;97093.73;105574;1302;22608;-83
2023/01/06 05:45:40;;;;;;;3.70;2.30;;;;;;;2.11;86.81;97099.04;105631;1278;23853;-83
2023/01/06 05:48:12;;;;;;;4.60;2.30;;;;;;;2.12;86.63;97101.17;105720;1300;22487;-83
2023/01/06 05:50:43;;;;;;;3.20;2.00;;;;;;;2.11;86.67;97097.98;105524;1294;58267;-83
2023/01/06 05:53:14;;;;;;;6.50;3.40;;;;;;;2.10;86.72;97093.89;105758;1300;22691;-83
2023/01/06 05:55:45;;;;;;;5.70;3.20;;;;;;;2.08;86.79;97088.87;105615;1293;22493;-83
2023/01/06 05:58:16;;;;;;;5.40;2.30;;;;;;;2.09;86.78;97093.54;105621;1287;22500;-82
2023/01/06 06:00:49;;;;;;;2.20;1.50;;;;;;;2.06;86.90;97089.05;105602;1288;22753;-83
2023/01/06 06:03:23;;;;;;;4.30;2.50;;;;;;;2.03;86.92;97089.96;105570;1281;22482;-83
2023/01/06 06:05:54;;;;;;;4.20;2.40;;;;;;;2.02;86.96;97086.84;105763;1288;22489;-83
2023/01/06 06:08:28;;;;;;;5.10;2.40;;;;;;;2.01;86.95;97090.23;105615;1287;22498;-83
2023/01/06 06:11:07;;;;;;;4.40;2.80;;;;;;;1.99;87.10;97088.55;105826;1295;22479;-83
2023/01/06 06:13:39;;;;;;;5.70;2.40;;;;;;;1.97;87.27;97097.81;105567;1295;22503;-82
2023/01/06 06:16:13;;;;;;;5.10;2.60;;;;;;;1.95;87.40;97103.09;105670;1286;22459;-83
2023/01/06 06:18:44;;;;;;;3.60;2.40;;;;;;;1.95;87.33;97109.55;105724;1294;22454;-83
2023/01/06 06:21:19;;;;;;;3.20;2.20;;;;;;;1.94;87.46;97106.43;105620;1298;22465;-83
2023/01/06 06:23:50;;;;;;;2.70;2.00;;;;;;;1.93;87.50;97111.83;105608;1302;22461;-83
2023/01/06 06:26:22;;;;;;;5.20;2.80;;;;;;;1.91;87.47;97115.58;105789;1277;23042;-83
2023/01/06 06:28:53;;;;;;;16.10;4.10;;;;;;;1.92;87.54;97114.65;105535;1302;22604;-83
2023/01/06 06:31:27;;;;;;;9.80;3.20;;;;;;;1.93;87.35;97116.09;105774;1287;22659;-83
2023/01/06 06:34:00;;;;;;;5.10;2.70;;;;;;;1.93;87.53;97110.63;105554;1302;22473;-83
2023/01/06 06:36:32;;;;;;;4.30;2.60;;;;;;;1.92;87.36;97114.17;105628;1281;25369;-83
2023/01/06 06:39:04;;;;;;;6.40;3.20;;;;;;;1.92;87.28;97116.50;105700;1301;22845;-83
2023/01/06 06:41:35;;;;;;;5.30;2.80;;;;;;;1.91;87.29;97120.29;105604;1302;22860;-82
2023/01/06 06:44:09;;;;;;;6.10;2.90;;;;;;;1.91;87.26;97126.33;105631;1294;23718;-83
2023/01/06 06:46:41;;;;;;;4.60;3.00;;;;;;;1.92;87.18;97123.22;105598;1295;22490;-83
2023/01/06 06:49:14;;;;;;;4.80;3.30;;;;;;;1.93;87.15;97126.75;105584;1302;22545;-82
2023/01/06 06:51:47;;;;;;;6.30;4.00;;;;;;;1.93;87.19;97130.77;105610;1294;22469;-83
2023/01/06 06:54:18;;;;;;;17.30;6.60;;;;;;;1.93;87.18;97132.02;105571;1277;22490;-82
2023/01/06 06:56:50;;;;;;;7.90;4.50;;;;;;;1.93;87.19;97138.21;105603;1302;22464;-82
2023/01/06 06:59:21;;;;;;;13.80;4.90;;;;;;;1.95;87.06;97139.16;105619;1302;22541;-82
2023/01/06 07:01:52;;;;;;;4.50;2.50;;;;;;;1.96;87.04;97149.70;105613;1298;22459;-82
2023/01/06 07:04:24;;;;;;;10.20;3.60;;;;;;;1.95;86.86;97151.23;105685;1300;22929;-83
2023/01/06 07:06:56;;;;;;;5.50;3.20;;;;;;;1.96;86.81;97152.55;105696;1300;22475;-83
2023/01/06 07:09:28;;;;;;;5.40;2.90;;;;;;;1.96;86.99;97156.13;105600;1294;38304;-83
2023/01/06 07:12:01;;;;;;;5.00;2.70;;;;;;;2.01;86.92;97159.86;105629;1289;22530;-83
2023/01/06 07:14:32;;;;;;;6.80;3.20;;;;;;;2.03;86.89;97163.46;105651;1296;22470;-83
2023/01/06 07:17:03;;;;;;;5.30;2.60;;;;;;;2.08;86.93;97162.34;105640;1302;22463;-83
2023/01/06 07:19:38;;;;;;;9.50;4.20;;;;;;;2.13;86.88;97167.95;105619;1301;25290;-83
2023/01/06 07:22:10;;;;;;;7.80;3.30;;;;;;;2.16;86.63;97168.42;105529;1297;22477;-83
2023/01/06 07:24:41;;;;;;;4.80;2.60;;;;;;;2.23;86.81;97175.08;105569;1302;22487;-82
2023/01/06 07:27:15;;;;;;;5.20;2.90;;;;;;;2.28;86.57;97175.15;105638;1298;22620;-83
2023/01/06 07:29:50;;;;;;;9.70;3.90;;;;;;;2.28;86.39;97169.88;105588;1302;24255;-83
2023/01/06 07:32:21;;;;;;;12.70;4.90;;;;;;;2.30;86.52;97168.16;105644;1302;23772;-83
2023/01/06 07:34:52;;;;;;;6.40;3.60;;;;;;;2.28;86.41;97174.06;105596;1302;22513;-82
2023/01/06 07:37:27;;;;;;;5.90;3.20;;;;;;;2.30;86.44;97171.66;105537;1301;22723;-83
2023/01/06 07:39:58;;;;;;;13.10;4.00;;;;;;;2.32;86.50;97171.69;105605;1302;23978;-83
2023/01/06 07:42:30;;;;;;;5.40;2.80;;;;;;;2.29;86.37;97173.20;105636;1300;22453;-83
2023/01/06 07:45:02;;;;;;;8.10;4.30;;;;;;;2.26;86.16;97176.92;105637;1302;22480;-83
2023/01/06 07:47:34;;;;;;;17.80;6.10;;;;;;;2.23;86.32;97178.10;105648;1300;23149;-82
2023/01/06 07:50:06;;;;;;;13.90;4.60;;;;;;;2.21;86.36;97181.34;105866;1300;28948;-83
2023/01/06 07:52:42;;;;;;;16.50;5.90;;;;;;;2.17;86.43;97179.08;105687;1300;22497;-82
2023/01/06 07:55:14;;;;;;;12.00;4.90;;;;;;;2.19;86.60;97181.33;105648;1285;22533;-82
2023/01/06 07:57:45;;;;;;;27.00;9.00;;;;;;;2.19;86.32;97185.89;105641;1302;22470;-82
2023/01/06 08:00:17;;;;;;;13.60;6.00;;;;;;;2.22;86.53;97182.34;105594;1302;24439;-82
2023/01/06 08:02:54;;;;;;;8.40;2.80;;;;;;;2.23;86.44;97182.48;105651;1302;24243;-83
2023/01/06 08:05:25;;;;;;;18.00;5.00;;;;;;;2.24;86.53;97182.48;105637;1299;23390;-83
2023/01/06 08:07:57;;;;;;;9.40;3.40;;;;;;;2.27;86.35;97177.13;105658;1294;22481;-83
2023/01/06 08:10:30;;;;;;;10.80;4.20;;;;;;;2.29;86.28;97174.02;105646;1295;25242;-83
2023/01/06 08:13:02;;;;;;;45.90;13.30;;;;;;;2.33;86.36;97174.27;105627;1302;22699;-83
2023/01/06 08:15:36;;;;;;;7.90;3.50;;;;;;;2.34;86.31;97175.86;105582;1302;24242;-82
2023/01/06 08:18:12;;;;;;;4.60;2.40;;;;;;;2.33;86.24;97176.64;105558;1294;24376;-82
2023/01/06 08:20:43;;;;;;;24.10;8.20;;;;;;;2.36;86.06;97180.92;105615;1302;22921;-83
2023/01/06 08:23:17;;;;;;;5.90;2.70;;;;;;;2.48;86.09;97176.21;105631;1294;25404;-82
2023/01/06 08:25:49;;;;;;;4.00;2.40;;;;;;;2.64;85.88;97181.49;105595;1302;22935;-82
2023/01/06 08:28:20;;;;;;;2.60;2.00;;;;;;;2.74;85.46;97184.51;105623;1287;22455;-82
2023/01/06 08:30:53;;;;;;;2.50;1.80;;;;;;;2.77;84.80;97186.98;105789;1300;22835;-82
2023/01/06 08:33:28;;;;;;;3.00;2.10;;;;;;;2.86;84.86;97197.21;105633;1302;22700;-82
2023/01/06 08:36:02;;;;;;;4.40;2.10;;;;;;;2.90;84.26;97204.74;105623;1302;22511;-83
2023/01/06 08:38:36;;;;;;;4.30;1.90;;;;;;;2.82;83.95;97213.45;105581;1291;34531;-83
2023/01/06 08:41:08;;;;;;;3.20;2.00;;;;;;;2.69;82.40;97218.05;105611;1288;22473;-83
2023/01/06 08:43:40;;;;;;;4.00;1.80;;;;;;;2.60;82.61;97221.27;105600;1295;25217;-83
2023/01/06 08:46:14;;;;;;;3.10;1.80;;;;;;;2.55;82.10;97220.16;105722;1300;25431;-82
2023/01/06 08:48:46;;;;;;;2.70;1.80;;;;;;;2.53;81.82;97222.42;105670;1300;22480;-83
2023/01/06 08:51:19;;;;;;;3.00;1.80;;;;;;;2.61;81.84;97218.55;105617;1302;23829;-82
2023/01/06 08:53:54;;;;;;;2.10;1.70;;;;;;;2.73;81.94;97222.46;105808;1299;24699;-82
2023/01/06 08:56:28;;;;;;;4.50;2.30;;;;;;;2.85;81.76;97225.59;105580;1283;23701;-82
2023/01/06 08:59:01;;;;;;;4.60;2.20;;;;;;;2.95;81.24;97228.32;105674;1279;38360;-82
2023/01/06 09:01:35;;;;;;;4.60;1.80;;;;;;;2.92;80.80;97227.70;105629;1301;22529;-82
2023/01/06 09:04:08;;;;;;;2.50;1.60;;;;;;;2.84;80.39;97225.89;105808;1284;22458;-82
2023/01/06 09:06:42;;;;;;;2.60;1.50;;;;;;;2.79;80.51;97229.29;105623;1294;23262;-83
2023/01/06 09:09:14;;;;;;;4.50;2.90;;;;;;;2.69;80.33;97227.68;105604;1278;24649;-82
2023/01/06 09:11:48;;;;;;;9.70;4.70;;;;;;;2.63;80.39;97225.02;105594;1283;22480;-83
2023/01/06 09:14:20;;;;;;;4.00;2.20;;;;;;;2.57;80.17;97223.73;105611;1296;22474;-83
2023/01/06 09:16:52;;;;;;;2.10;1.80;;;;;;;2.51;80.28;97229.68;105630;1298;22650;-82
2023/01/06 09:19:24;;;;;;;4.90;2.80;;;;;;;2.51;80.73;97231.21;105559;1288;75840;-82
2023/01/06 09:21:58;;;;;;;8.10;4.40;;;;;;;2.55;81.01;97227.91;105643;1302;22474;-82
2023/01/06 09:24:30;;;;;;;8.80;5.70;;;;;;;2.59;80.76;97228.08;105620;1302;25641;-82
2023/01/06 09:27:02;;;;;;;6.30;3.30;;;;;;;2.60;80.83;97226.70;105618;1287;22505;-82
2023/01/06 09:29:34;;;;;;;3.90;2.70;;;;;;;2.63;81.09;97226.70;105596;1302;23183;-82
2023/01/06 09:32:06;;;;;;;6.30;2.80;;;;;;;2.65;80.96;97224.71;105728;1285;25275;-82
2023/01/06 09:34:39;;;;;;;3.90;2.40;;;;;;;2.66;81.15;97213.92;105765;1276;24222;-82
2023/01/06 09:37:10;;;;;;;3.30;2.10;;;;;;;2.72;81.40;97213.89;105628;1302;22575;-82
2023/01/06 09:39:42;;;;;;;6.00;1.70;;;;;;;2.77;81.35;97207.92;105654;1286;50934;-83
2023/01/06 09:42:25;;;;;;;3.20;1.90;;;;;;;2.81;81.09;97201.40;105537;1302;22532;-82
2023/01/06 09:45:01;;;;;;;5.60;2.60;;;;;;;2.86;81.15;97197.38;105515;1302;22518;-83
2023/01/06 09:47:40;;;;;;;2.50;2.00;;;;;;;2.90;81.02;97193.80;105573;1303;22481;-83
2023/01/06 09:50:22;;;;;;;4.90;2.10;;;;;;;2.93;81.22;97189.52;105468;1303;59530;-82
2023/01/06 09:52:56;;;;;;;3.00;2.20;;;;;;;2.92;80.88;97179.02;105505;1303;22543;-82
2023/01/06 09:55:34;;;;;;;4.80;2.70;;;;;;;2.90;80.83;97176.23;105567;1287;22467;-82
2023/01/06 09:58:18;;;;;;;4.70;2.40;;;;;;;2.90;81.09;97172.00;105609;1302;22517;-83
2023/01/06 10:00:53;;;;;;;2.70;1.90;;;;;;;2.94;81.09;97167.92;105692;1300;22632;-82
2023/01/06 10:03:27;;;;;;;6.30;2.90;;;;;;;2.97;81.20;97164.70;105716;1275;22441;-82
2023/01/06 10:06:11;;;;;;;6.20;2.70;;;;;;;2.98;81.24;97159.20;105642;1296;22520;-82
2023/01/06 10:08:57;;;;;;;10.00;5.60;;;;;;;3.01;81.53;97153.05;105615;1296;42028;-82
2023/01/06 10:11:45;;;;;;;12.50;6.10;;;;;;;3.08;81.35;97139.42;105640;1286;24222;-82
2023/01/06 10:14:29;;;;;;;21.30;10.80;;;;;;;3.14;81.17;97143.17;105645;1302;22473;-82
2023/01/06 10:17:24;;;;;;;8.10;3.90;;;;;;;3.20;81.30;97131.23;105635;1302;22524;-82
2023/01/06 10:20:11;;;;;;;3.40;2.10;;;;;;;3.15;80.71;97127.95;105537;1296;38722;-82
2023/01/06 10:22:51;;;;;;;4.30;2.50;;;;;;;3.11;80.88;97128.17;105539;1277;24251;-81
2023/01/06 10:25:33;;;;;;;12.10;5.00;;;;;;;3.16;81.08;97122.27;105609;1291;25296;-82
2023/01/06 10:28:20;;;;;;;13.70;6.10;;;;;;;3.20;81.10;97117.61;105520;1304;22458;-82
2023/01/06 10:30:58;;;;;;;14.70;5.80;;;;;;;3.17;81.05;97115.44;105561;1303;22497;-81
2023/01/06 10:33:36;;;;;;;35.00;14.80;;;;;;;3.15;81.01;97113.90;105552;1277;22485;-82
2023/01/06 10:36:15;;;;;;;5.30;3.10;;;;;;;3.21;81.51;97105.64;105565;1272;22489;-82
2023/01/06 10:38:53;;;;;;;5.30;2.80;;;;;;;3.28;81.41;97106.64;105593;1281;22992;-82
2023/01/06 10:41:39;;;;;;;5.10;3.00;;;;;;;3.34;81.35;97105.48;105513;1283;22478;-82
2023/01/06 10:44:13;;;;;;;4.20;2.90;;;;;;;3.46;81.56;97110.59;105507;1299;22717;-82
2023/01/06 10:46:49;;;;;;;4.70;2.60;;;;;;;3.56;80.94;97114.76;105536;1288;22473;-82
2023/01/06 10:49:21;;;;;;;12.90;5.20;;;;;;;3.58;80.84;97108.88;105478;1303;24336;-82
2023/01/06 10:52:02;;;;;;;6.90;3.10;;;;;;;3.56;80.38;97104.02;105634;1303;22756;-82
2023/01/06 10:54:34;;;;;;;;;;;;;;;3.48;80.04;97103.58;105555;1303;22442;-82
2023/01/06 10:57:12;;;;;;;18.00;6.30;;;;;;;3.45;80.25;97098.58;105487;1304;22517;-82
2023/01/06 11:00:21;;;;;;;10.00;4.00;;;;;;;3.48;80.62;97101.93;105422;1296;26969;-82
2023/01/06 11:03:04;;;;;;;9.80;4.10;;;;;;;3.55;80.29;97105.56;105443;1303;22504;-83
2023/01/06 11:05:37;;;;;;;4.90;3.50;;;;;;;3.63;80.30;97098.77;105451;1290;22456;-82
2023/01/06 11:08:15;;;;;;;4.50;2.50;;;;;;;3.71;80.32;97091.04;105341;1303;334541;-83
2023/01/06 11:10:55;;;;;;;8.10;3.70;;;;;;;3.81;79.84;97097.33;105449;1304;25383;-82
2023/01/06 11:13:31;;;;;;;3.30;2.50;;;;;;;3.79;79.78;97100.56;105528;1304;22549;-82
2023/01/06 11:16:21;;;;;;;8.40;4.10;;;;;;;3.81;79.97;97097.15;105696;1284;22496;-82
2023/01/06 11:18:58;;;;;;;9.50;3.90;;;;;;;3.84;79.66;97094.57;105626;1296;22782;-82
2023/01/06 11:21:41;;;;;;;10.40;4.80;;;;;;;3.82;79.32;97095.42;105457;1296;22490;-82
2023/01/06 11:24:19;;;;;;;12.60;6.20;;;;;;;3.88;79.47;97087.90;105475;1303;22522;-82
2023/01/06 11:26:57;;;;;;;8.30;3.50;;;;;;;3.95;79.40;97075.48;105516;1303;23448;-82
2023/01/06 11:29:32;;;;;;;6.00;3.40;;;;;;;4.04;78.99;97066.68;105440;1298;38147;-82
2023/01/06 11:32:13;;;;;;;11.40;5.00;;;;;;;4.12;78.74;97066.84;105438;1304;22535;-82
2023/01/06 11:34:55;;;;;;;6.50;3.70;;;;;;;4.19;78.58;97062.44;105788;1303;22492;-82
2023/01/06 11:37:37;;;;;;;4.90;3.00;;;;;;;4.29;78.52;97063.14;105619;1281;24296;-82
2023/01/06 11:40:25;;;;;;;6.80;3.80;;;;;;;4.35;78.18;97061.81;105533;1296;33459;-82
2023/01/06 11:42:59;;;;;;;5.90;3.30;;;;;;;4.36;77.95;97052.08;105630;1294;22676;-82
2023/01/06 11:45:35;;;;;;;14.80;6.90;;;;;;;4.36;77.69;97055.95;105661;1294;22655;-82
2023/01/06 11:48:13;;;;;;;6.00;3.40;;;;;;;4.41;78.03;97058.65;105592;1302;22480;-82
2023/01/06 11:50:56;;;;;;;15.00;6.30;;;;;;;4.55;78.33;97054.02;105604;1302;57363;-82
2023/01/06 11:53:32;;;;;;;8.30;4.40;;;;;;;4.65;77.63;97047.58;105622;1296;24197;-83
2023/01/06 11:56:07;;;;;;;6.20;3.50;;;;;;;4.67;76.83;97051.88;105584;1288;22594;-82
2023/01/06 11:58:49;;;;;;;6.00;3.80;;;;;;;4.70;76.91;97053.52;105601;1281;39373;-82
2023/01/06 12:01:29;;;;;;;7.90;3.90;;;;;;;4.80;76.91;97057.77;105644;1301;22547;-82
2023/01/06 12:04:12;;;;;;;12.20;5.90;;;;;;;4.85;76.31;97058.26;105513;1302;22463;-82
2023/01/06 12:06:46;;;;;;;13.20;6.20;;;;;;;4.96;76.68;97063.79;105643;1294;22556;-82
2023/01/06 12:09:24;;;;;;;7.80;4.60;;;;;;;5.08;76.66;97061.57;105640;1302;75763;-82
2023/01/06 12:12:02;;;;;;;7.80;3.80;;;;;;;5.24;76.54;97059.58;105719;1302;22535;-82
2023/01/06 12:14:39;;;;;;;11.90;6.30;;;;;;;5.42;75.87;97064.71;105657;1302;22481;-82
2023/01/06 12:17:18;;;;;;;5.10;3.50;;;;;;;5.52;75.78;97067.13;105603;1300;22523;-83